Time;durP1;ratioP1;P1;durP2;ratioP2;P2;SDS_P1;SDS_P2;PMS_P1;PMS_P2;Temp;Humidity;BMP_temperature;BMP_pressure;BME280_temperature;BME280_humidity;BME280_pressure;Samples;Min_cycle;Max_cycle;Signal;HPM_P1;HPM_P2
2022/03/18 00:02:22;;;;;;;16.17;6.28;;;3.70;99.90;;;;;;5013580;28;20046;-40
2022/03/18 00:04:49;;;;;;;14.18;5.82;;;3.70;99.90;;;;;;5004666;28;20038;-40
2022/03/18 00:07:15;;;;;;;16.02;5.93;;;3.60;99.90;;;;;;5012557;28;20061;-39
2022/03/18 00:09:42;;;;;;;12.15;5.75;;;3.60;99.90;;;;;;5012338;28;20044;-39
2022/03/18 00:12:11;;;;;;;13.15;5.88;;;3.60;99.90;;;;;;5013192;28;20385;-39
2022/03/18 00:14:39;;;;;;;13.38;5.63;;;3.60;99.90;;;;;;5011512;28;20093;-39
2022/03/18 00:17:07;;;;;;;16.60;6.80;;;3.50;99.90;;;;;;5013283;28;20080;-39
2022/03/18 00:19:33;;;;;;;15.52;6.43;;;3.50;99.90;;;;;;5012762;28;20045;-40
2022/03/18 00:22:01;;;;;;;12.40;6.32;;;3.50;99.90;;;;;;5013058;28;20129;-39
2022/03/18 00:24:28;;;;;;;16.83;6.88;;;3.40;99.90;;;;;;5012579;28;20548;-39
2022/03/18 00:26:54;;;;;;;15.85;6.35;;;3.50;99.90;;;;;;5012044;28;20049;-39
2022/03/18 00:29:22;;;;;;;18.25;7.10;;;3.40;99.90;;;;;;5012853;28;20394;-39
2022/03/18 00:31:49;;;;;;;12.93;5.70;;;3.40;99.90;;;;;;5012373;28;20056;-39
2022/03/18 00:34:16;;;;;;;14.07;6.35;;;3.40;99.90;;;;;;5012610;28;20045;-40
2022/03/18 00:36:43;;;;;;;20.15;6.68;;;3.40;99.90;;;;;;5013095;28;20053;-39
2022/03/18 00:39:09;;;;;;;14.10;6.13;;;3.40;99.90;;;;;;5012222;28;20066;-39
2022/03/18 00:41:36;;;;;;;20.25;6.47;;;3.40;99.90;;;;;;5013804;28;20041;-39
2022/03/18 00:44:03;;;;;;;15.93;6.25;;;3.30;99.90;;;;;;5012749;28;20492;-39
2022/03/18 00:46:31;;;;;;;16.38;6.03;;;3.30;99.90;;;;;;5011369;28;20057;-39
2022/03/18 00:54:27;;;;;;;16.63;5.82;;;3.20;99.90;;;;;;5012764;28;20172;-39
2022/03/18 00:56:54;;;;;;;11.60;5.93;;;3.20;99.90;;;;;;5012730;28;20041;-39
2022/03/18 00:59:20;;;;;;;12.57;5.88;;;3.20;99.90;;;;;;5012538;28;20146;-39
2022/03/18 01:01:52;;;;;;;10.65;5.35;;;3.20;99.90;;;;;;5013017;28;20042;-39
2022/03/18 01:04:18;;;;;;;12.05;5.10;;;3.10;99.90;;;;;;5011278;28;20474;-39
2022/03/18 01:06:45;;;;;;;14.18;6.20;;;3.10;99.90;;;;;;5010383;28;20058;-39
2022/03/18 01:09:12;;;;;;;15.27;5.93;;;3.10;99.90;;;;;;5012767;28;20137;-39
2022/03/18 01:11:38;;;;;;;13.25;6.03;;;3.10;99.90;;;;;;5012086;28;20046;-39
2022/03/18 01:14:05;;;;;;;10.50;5.00;;;3.00;99.90;;;;;;5012436;28;20041;-39
2022/03/18 01:16:32;;;;;;;13.13;6.00;;;3.00;99.90;;;;;;5012382;28;20056;-38
2022/03/18 01:19:00;;;;;;;11.90;4.82;;;3.00;99.90;;;;;;5012816;28;20042;-39
2022/03/18 01:21:27;;;;;;;17.63;5.55;;;3.00;99.90;;;;;;5011354;28;20069;-39
2022/03/18 01:23:54;;;;;;;13.45;5.40;;;3.00;99.90;;;;;;5011095;28;20133;-39
2022/03/18 01:26:20;;;;;;;10.05;5.10;;;3.00;99.90;;;;;;5011887;28;20425;-38
2022/03/18 01:28:47;;;;;;;16.15;5.75;;;2.90;99.90;;;;;;5012540;28;20056;-39
2022/03/18 01:31:14;;;;;;;20.70;6.95;;;2.90;99.90;;;;;;5012560;28;20044;-39
2022/03/18 01:33:40;;;;;;;19.67;6.63;;;2.90;99.90;;;;;;5012370;28;20046;-39
2022/03/18 01:36:08;;;;;;;15.52;5.85;;;2.90;99.90;;;;;;5012253;28;20243;-39
2022/03/18 01:38:35;;;;;;;14.00;5.95;;;2.90;99.90;;;;;;5010845;28;20033;-38
2022/03/18 01:41:02;;;;;;;17.77;6.10;;;2.90;99.90;;;;;;5011503;28;20038;-39
2022/03/18 01:43:28;;;;;;;19.15;6.00;;;2.90;99.90;;;;;;5010856;28;20046;-39
2022/03/18 01:45:55;;;;;;;16.15;5.95;;;2.90;99.90;;;;;;5012018;28;20473;-39
2022/03/18 01:48:22;;;;;;;12.07;5.72;;;2.90;99.90;;;;;;5009013;28;20052;-39
2022/03/18 01:50:48;;;;;;;15.13;6.60;;;2.80;99.90;;;;;;5011387;28;20060;-39
2022/03/18 01:53:17;;;;;;;14.70;6.72;;;2.80;99.90;;;;;;5010849;28;20492;-38
2022/03/18 01:55:44;;;;;;;18.60;6.50;;;2.80;99.90;;;;;;5009921;28;20481;-38
2022/03/18 01:58:10;;;;;;;20.83;7.05;;;2.80;99.90;;;;;;5011831;28;20049;-38
2022/03/18 02:00:37;;;;;;;22.63;7.45;;;2.80;99.90;;;;;;5010926;28;20054;-39
2022/03/18 02:03:04;;;;;;;17.75;6.30;;;2.80;99.90;;;;;;5009870;28;20478;-39
2022/03/18 02:05:31;;;;;;;14.45;6.55;;;2.80;99.90;;;;;;5011842;28;20046;-39
2022/03/18 02:07:57;;;;;;;17.85;7.43;;;2.80;99.90;;;;;;5027230;28;20042;-39
2022/03/18 02:10:26;;;;;;;11.43;5.97;;;2.80;99.90;;;;;;5012166;28;20058;-38
2022/03/18 02:12:52;;;;;;;19.77;7.32;;;2.70;99.90;;;;;;5009165;28;20413;-38
2022/03/18 02:15:19;;;;;;;17.02;7.15;;;2.70;99.90;;;;;;5010990;28;20048;-38
2022/03/18 02:17:46;;;;;;;21.67;7.55;;;2.70;99.90;;;;;;5009487;28;20046;-38
2022/03/18 02:20:12;;;;;;;18.48;6.78;;;2.70;99.90;;;;;;5010763;28;20471;-39
2022/03/18 02:22:40;;;;;;;14.27;5.97;;;2.70;99.90;;;;;;5011097;28;20060;-38
2022/03/18 02:25:12;;;;;;;17.60;6.13;;;2.70;99.90;;;;;;5010504;28;20052;-38
2022/03/18 02:27:38;;;;;;;15.23;6.85;;;2.60;99.90;;;;;;5011053;28;20053;-38
2022/03/18 02:30:06;;;;;;;15.35;6.93;;;2.60;99.90;;;;;;5010481;28;20045;-38
2022/03/18 02:32:34;;;;;;;11.52;6.43;;;2.60;99.90;;;;;;5009487;28;20042;-38
2022/03/18 02:35:01;;;;;;;18.55;7.93;;;2.60;99.90;;;;;;5011440;28;20041;-38
2022/03/18 02:37:28;;;;;;;18.92;7.80;;;2.60;99.90;;;;;;5011691;28;20437;-38
2022/03/18 02:39:56;;;;;;;11.02;5.55;;;2.60;99.90;;;;;;5011332;28;20042;-38
2022/03/18 02:42:23;;;;;;;14.65;6.50;;;2.60;99.90;;;;;;5006204;28;20046;-38
2022/03/18 02:44:50;;;;;;;17.33;6.82;;;2.60;99.90;;;;;;5010284;28;20050;-38
2022/03/18 02:47:16;;;;;;;16.13;6.68;;;2.60;99.90;;;;;;5010023;28;20128;-39
2022/03/18 02:49:43;;;;;;;16.75;6.75;;;2.50;99.90;;;;;;5007300;28;20060;-38
2022/03/18 02:52:10;;;;;;;14.48;7.10;;;2.50;99.90;;;;;;5010840;28;20046;-38
2022/03/18 02:54:37;;;;;;;16.35;7.50;;;2.50;99.90;;;;;;5011510;28;20046;-38
2022/03/18 02:57:05;;;;;;;15.38;7.05;;;2.50;99.90;;;;;;5014690;28;20045;-39
2022/03/18 02:59:33;;;;;;;16.00;7.28;;;2.50;99.90;;;;;;5015062;28;20042;-38
2022/03/18 03:01:59;;;;;;;18.73;7.40;;;2.50;99.90;;;;;;5015291;28;20096;-38
2022/03/18 03:04:26;;;;;;;17.25;7.30;;;2.50;99.90;;;;;;5014209;28;20129;-38
2022/03/18 03:09:37;;;;;;;16.98;7.50;;;2.40;99.90;;;;;;5015380;28;20124;-38
2022/03/18 03:12:06;;;;;;;13.43;6.55;;;2.40;99.90;;;;;;5014891;28;20042;-38
2022/03/18 03:14:33;;;;;;;16.25;6.28;;;2.40;99.90;;;;;;5013555;28;20042;-38
2022/03/18 03:16:59;;;;;;;24.73;9.43;;;2.40;99.90;;;;;;5014726;28;20381;-38
2022/03/18 03:19:26;;;;;;;17.10;7.40;;;2.40;99.90;;;;;;5014036;28;20048;-39
2022/03/18 03:21:54;;;;;;;12.35;6.18;;;2.30;99.90;;;;;;5015247;28;20042;-39
2022/03/18 03:24:20;;;;;;;15.88;6.50;;;2.30;99.90;;;;;;5013650;28;20045;-39
2022/03/18 03:26:47;;;;;;;18.50;7.05;;;2.30;99.90;;;;;;5014249;28;20052;-40
2022/03/18 03:29:16;;;;;;;16.58;7.18;;;2.30;99.90;;;;;;5013899;28;20057;-39
2022/03/18 03:31:42;;;;;;;13.95;7.15;;;2.30;99.90;;;;;;5013789;28;20056;-39
2022/03/18 03:34:09;;;;;;;16.50;6.68;;;2.30;99.90;;;;;;5015307;28;20056;-39
2022/03/18 03:36:35;;;;;;;15.63;6.45;;;2.20;99.90;;;;;;5012958;28;20045;-39
2022/03/18 03:39:02;;;;;;;12.85;6.43;;;2.30;99.90;;;;;;5014490;28;20804;-39
2022/03/18 03:41:29;;;;;;;17.58;7.55;;;2.30;99.90;;;;;;5014548;28;20061;-39
2022/03/18 03:43:55;;;;;;;18.25;7.70;;;2.20;99.90;;;;;;5012683;28;20065;-39
2022/03/18 03:46:23;;;;;;;11.30;5.95;;;2.20;99.90;;;;;;5013135;28;20061;-39
2022/03/18 03:48:50;;;;;;;13.32;6.63;;;2.20;99.90;;;;;;5014738;28;20390;-38
2022/03/18 03:51:17;;;;;;;19.23;6.57;;;2.20;99.90;;;;;;5012940;28;20085;-39
2022/03/18 03:53:43;;;;;;;16.73;6.93;;;2.20;99.90;;;;;;5015145;28;20045;-39
2022/03/18 03:56:10;;;;;;;10.55;6.10;;;2.20;99.90;;;;;;5014032;28;20053;-39
2022/03/18 03:58:37;;;;;;;12.50;5.85;;;2.20;99.90;;;;;;5013464;28;20050;-39
2022/03/18 04:01:04;;;;;;;18.13;7.65;;;2.10;99.90;;;;;;5013186;28;20367;-39
2022/03/18 04:03:32;;;;;;;14.05;6.47;;;2.10;99.90;;;;;;5013377;28;20522;-39
2022/03/18 04:05:59;;;;;;;19.88;6.95;;;2.10;99.90;;;;;;5014477;28;20048;-39
2022/03/18 04:08:25;;;;;;;18.77;7.10;;;2.10;99.90;;;;;;5014459;28;20053;-39
2022/03/18 04:10:54;;;;;;;12.32;6.53;;;2.10;99.90;;;;;;5011945;28;20050;-38
2022/03/18 04:13:21;;;;;;;15.85;6.88;;;2.10;99.90;;;;;;5010011;28;20064;-39
2022/03/18 04:15:48;;;;;;;16.73;8.65;;;2.10;99.90;;;;;;5013732;28;20125;-39
2022/03/18 04:18:14;;;;;;;14.60;6.05;;;2.10;99.90;;;;;;5014864;28;20064;-39
2022/03/18 04:20:42;;;;;;;20.30;7.18;;;2.10;99.90;;;;;;5014041;28;20068;-39
2022/03/18 04:23:09;;;;;;;15.13;8.00;;;2.10;99.90;;;;;;5014462;28;20041;-39
2022/03/18 04:25:36;;;;;;;15.30;7.60;;;2.00;99.90;;;;;;4998603;28;20042;-39
2022/03/18 04:28:02;;;;;;;11.95;6.53;;;2.00;99.90;;;;;;5014791;28;20052;-39
2022/03/18 04:30:29;;;;;;;15.80;7.70;;;2.00;99.90;;;;;;5013558;28;20037;-39
2022/03/18 04:32:56;;;;;;;12.77;6.28;;;2.00;99.90;;;;;;5014739;28;20042;-39
2022/03/18 04:35:23;;;;;;;14.93;7.93;;;2.00;99.90;;;;;;5012234;28;20054;-39
2022/03/18 04:37:51;;;;;;;16.35;7.47;;;2.00;99.90;;;;;;5006301;28;20046;-39
2022/03/18 04:40:18;;;;;;;15.73;7.32;;;1.90;99.90;;;;;;5012885;28;20100;-39
2022/03/18 04:42:45;;;;;;;12.35;6.32;;;1.90;99.90;;;;;;5006397;28;20052;-39
2022/03/18 04:45:12;;;;;;;13.18;6.93;;;1.90;99.90;;;;;;5012203;28;20213;-39
2022/03/18 04:47:39;;;;;;;13.25;7.20;;;1.90;99.90;;;;;;5028685;28;20129;-39
2022/03/18 04:50:06;;;;;;;10.65;6.20;;;1.90;99.90;;;;;;5012233;28;20073;-39
2022/03/18 04:52:33;;;;;;;12.48;6.25;;;1.90;99.90;;;;;;5013480;28;20389;-39
2022/03/18 04:55:01;;;;;;;16.80;6.93;;;1.80;99.90;;;;;;5013310;28;20050;-39
2022/03/18 04:57:27;;;;;;;15.00;7.13;;;1.90;99.90;;;;;;5012446;28;20456;-39
2022/03/18 04:59:56;;;;;;;12.25;6.32;;;1.80;99.90;;;;;;5013416;28;20050;-39
2022/03/18 05:02:24;;;;;;;11.20;6.70;;;1.90;99.90;;;;;;5011693;28;20493;-39
2022/03/18 05:04:50;;;;;;;13.13;6.60;;;1.80;99.90;;;;;;5028335;28;20045;-39
2022/03/18 05:07:17;;;;;;;13.52;7.43;;;1.80;99.90;;;;;;5012648;28;20046;-39
2022/03/18 05:09:45;;;;;;;11.73;6.05;;;1.80;99.90;;;;;;5011238;28;20084;-39
2022/03/18 05:12:14;;;;;;;18.75;8.10;;;1.80;99.90;;;;;;5010799;28;20129;-39
2022/03/18 05:14:41;;;;;;;13.75;6.53;;;1.80;99.90;;;;;;5012911;28;20085;-39
2022/03/18 05:17:09;;;;;;;15.48;6.93;;;1.80;99.90;;;;;;5011893;28;20054;-39
2022/03/18 05:19:35;;;;;;;16.65;8.63;;;1.70;99.90;;;;;;5012769;28;20405;-39
2022/03/18 05:22:02;;;;;;;22.52;9.52;;;1.80;99.90;;;;;;5011580;28;20414;-39
2022/03/18 05:24:29;;;;;;;13.00;6.40;;;1.80;99.90;;;;;;5012427;28;20478;-39
2022/03/18 05:26:55;;;;;;;12.98;6.53;;;1.70;99.90;;;;;;5011900;28;20132;-39
2022/03/18 05:29:25;;;;;;;15.40;7.18;;;1.70;99.90;;;;;;5012314;28;20155;-39
2022/03/18 05:31:52;;;;;;;18.95;9.50;;;1.70;99.90;;;;;;5010085;28;20056;-39
2022/03/18 05:34:18;;;;;;;13.65;7.32;;;1.70;99.90;;;;;;5011212;28;20069;-39
2022/03/18 05:36:45;;;;;;;14.63;7.28;;;1.70;99.90;;;;;;5010567;28;20045;-39
2022/03/18 05:39:12;;;;;;;17.92;7.82;;;1.70;99.90;;;;;;5005781;28;20088;-39
2022/03/18 05:41:39;;;;;;;14.50;7.15;;;1.70;99.90;;;;;;5009314;28;20108;-39
2022/03/18 05:44:05;;;;;;;14.70;7.68;;;1.70;99.90;;;;;;5012114;28;20393;-38
2022/03/18 05:46:34;;;;;;;16.08;7.40;;;1.70;99.90;;;;;;5010854;28;20052;-39
2022/03/18 05:49:00;;;;;;;13.02;6.78;;;1.70;99.90;;;;;;5011066;28;20053;-39
2022/03/18 05:51:27;;;;;;;12.43;7.65;;;1.70;99.90;;;;;;5009934;28;20141;-39
2022/03/18 05:53:54;;;;;;;15.82;8.60;;;1.60;99.90;;;;;;5010976;28;20069;-39
2022/03/18 05:59:06;;;;;;;18.13;10.13;;;1.60;99.90;;;;;;5012410;28;20050;-39
2022/03/18 06:01:37;;;;;;;17.05;8.80;;;1.60;99.90;;;;;;5009278;28;20048;-39
2022/03/18 06:04:04;;;;;;;18.75;8.45;;;1.60;99.90;;;;;;5011322;28;20449;-39
2022/03/18 06:06:30;;;;;;;16.80;8.50;;;1.60;99.90;;;;;;5009046;28;20056;-39
2022/03/18 06:11:51;;;;;;;19.10;9.07;;;1.60;99.90;;;;;;5005131;28;20124;-39
2022/03/18 06:14:19;;;;;;;25.15;10.93;;;1.60;99.90;;;;;;5007695;28;20078;-39
2022/03/18 06:16:48;;;;;;;18.92;9.35;;;1.60;99.90;;;;;;5009744;28;20046;-39
2022/03/18 06:19:16;;;;;;;21.35;11.73;;;1.70;99.90;;;;;;5011618;28;20042;-39
2022/03/18 06:21:43;;;;;;;23.98;12.20;;;1.70;99.90;;;;;;5011340;28;20054;-39
2022/03/18 06:24:10;;;;;;;25.20;11.38;;;1.70;99.90;;;;;;5002855;28;20465;-39
2022/03/18 06:26:36;;;;;;;17.58;10.20;;;1.70;99.90;;;;;;5010991;28;20053;-39
2022/03/18 06:29:03;;;;;;;17.75;8.93;;;1.70;99.90;;;;;;5010267;28;20425;-39
2022/03/18 06:31:30;;;;;;;13.75;7.93;;;1.80;99.90;;;;;;5011038;28;20508;-39
2022/03/18 06:33:58;;;;;;;25.17;11.35;;;1.80;99.90;;;;;;5008269;28;20068;-39
2022/03/18 06:36:25;;;;;;;16.90;8.88;;;1.80;99.90;;;;;;5010409;28;20046;-39
2022/03/18 06:38:51;;;;;;;17.40;9.73;;;1.90;99.90;;;;;;5011738;28;20084;-39
2022/03/18 06:41:19;;;;;;;21.55;9.55;;;1.90;99.90;;;;;;5010509;28;20044;-39
2022/03/18 06:43:46;;;;;;;28.35;13.02;;;1.90;99.90;;;;;;5011242;28;20440;-39
2022/03/18 06:46:12;;;;;;;26.88;13.27;;;2.00;99.90;;;;;;5009367;28;20060;-39
2022/03/18 06:48:40;;;;;;;21.95;11.43;;;2.00;99.90;;;;;;5010748;28;20132;-39
2022/03/18 06:51:08;;;;;;;20.95;11.05;;;2.10;99.90;;;;;;5009306;28;20370;-39
2022/03/18 06:53:35;;;;;;;24.08;11.73;;;2.20;99.90;;;;;;5011113;28;20478;-39
2022/03/18 06:56:02;;;;;;;26.15;13.80;;;2.20;99.90;;;;;;5009382;28;20041;-39
2022/03/18 06:58:28;;;;;;;25.23;13.85;;;2.30;99.90;;;;;;5006101;28;20050;-39
2022/03/18 07:00:55;;;;;;;26.25;14.00;;;2.40;99.90;;;;;;5007879;28;20104;-38
2022/03/18 07:03:22;;;;;;;23.75;13.60;;;2.50;99.90;;;;;;5009047;28;20077;-38
2022/03/18 07:05:48;;;;;;;26.25;13.52;;;2.60;99.90;;;;;;5005034;28;20504;-38
2022/03/18 07:08:17;;;;;;;31.02;15.13;;;2.70;99.90;;;;;;5008839;28;20137;-38
2022/03/18 07:10:43;;;;;;;38.92;19.17;;;2.80;99.90;;;;;;5003850;28;20076;-39
2022/03/18 07:13:10;;;;;;;28.77;15.95;;;2.90;99.90;;;;;;5007435;28;20096;-39
2022/03/18 07:15:37;;;;;;;31.58;18.20;;;3.00;99.90;;;;;;5005795;28;20350;-38
2022/03/18 07:18:03;;;;;;;33.08;20.88;;;3.10;99.90;;;;;;5004231;28;20161;-38
2022/03/18 07:20:31;;;;;;;34.72;19.17;;;3.30;99.90;;;;;;5006183;28;20049;-39
2022/03/18 07:23:05;;;;;;;42.22;23.55;;;3.50;99.90;;;;;;5006773;28;20045;-38
2022/03/18 07:25:34;;;;;;;35.45;20.10;;;3.70;99.90;;;;;;5002775;28;20345;-38
2022/03/18 07:28:00;;;;;;;36.45;22.52;;;3.80;99.90;;;;;;5006998;28;20504;-39
2022/03/18 07:30:27;;;;;;;32.05;20.60;;;4.00;99.90;;;;;;5008740;28;20504;-39
2022/03/18 07:32:54;;;;;;;35.38;22.02;;;4.20;99.90;;;;;;5005700;28;20050;-39
2022/03/18 07:35:20;;;;;;;46.17;22.83;;;4.40;99.90;;;;;;5007856;28;20376;-39
2022/03/18 07:37:48;;;;;;;37.42;21.52;;;4.60;99.90;;;;;;5009116;28;20041;-39
2022/03/18 07:40:16;;;;;;;38.80;20.83;;;4.80;99.90;;;;;;5009878;28;20046;-39
2022/03/18 07:42:45;;;;;;;33.67;19.65;;;4.90;99.90;;;;;;5006045;28;20046;-39
2022/03/18 07:45:13;;;;;;;32.25;18.50;;;5.10;99.90;;;;;;5010005;28;20049;-39
2022/03/18 07:47:39;;;;;;;31.60;20.00;;;5.30;99.90;;;;;;5006221;28;20422;-39
2022/03/18 07:50:07;;;;;;;30.95;18.90;;;5.40;99.90;;;;;;5008437;28;20045;-39
2022/03/18 07:52:34;;;;;;;36.88;19.67;;;5.70;99.90;;;;;;5010031;28;20125;-39
2022/03/18 07:55:00;;;;;;;32.88;18.85;;;5.80;99.90;;;;;;5008284;28;20127;-40
2022/03/18 07:57:27;;;;;;;30.42;17.95;;;6.00;99.90;;;;;;5009852;28;20363;-39
2022/03/18 07:59:55;;;;;;;32.80;19.30;;;6.10;99.90;;;;;;5014178;28;20053;-39
2022/03/18 08:02:22;;;;;;;33.33;18.58;;;6.30;99.90;;;;;;5012500;28;20050;-40
2022/03/18 08:04:51;;;;;;;30.15;17.27;;;6.50;99.90;;;;;;5005067;28;20045;-39
2022/03/18 08:07:18;;;;;;;31.52;17.80;;;6.60;99.90;;;;;;5013144;28;20129;-39
2022/03/18 08:09:44;;;;;;;34.85;18.55;;;6.80;99.90;;;;;;5008069;28;20049;-40
2022/03/18 08:12:11;;;;;;;27.40;17.23;;;6.90;99.90;;;;;;5013632;28;20050;-40
2022/03/18 08:14:38;;;;;;;37.03;17.48;;;7.10;99.90;;;;;;5014115;28;20052;-40
2022/03/18 08:17:06;;;;;;;31.50;17.63;;;7.20;99.90;;;;;;5012504;28;20053;-40
2022/03/18 08:19:33;;;;;;;28.38;16.98;;;7.30;99.90;;;;;;5014263;28;20052;-40
2022/03/18 08:22:01;;;;;;;27.10;16.52;;;7.50;99.90;;;;;;5007494;28;20092;-40
2022/03/18 08:24:28;;;;;;;30.98;16.25;;;7.60;99.90;;;;;;5014040;28;20042;-39
2022/03/18 08:26:55;;;;;;;24.92;15.57;;;7.80;99.90;;;;;;5012045;28;20469;-40
2022/03/18 08:29:22;;;;;;;26.45;15.00;;;7.90;99.90;;;;;;5006268;28;20056;-40
2022/03/18 08:31:48;;;;;;;22.42;14.40;;;8.10;99.90;;;;;;5014202;28;20041;-40
2022/03/18 08:34:16;;;;;;;29.40;16.38;;;8.30;99.90;;;;;;5010795;28;20499;-39
2022/03/18 08:36:43;;;;;;;28.23;14.07;;;8.40;99.90;;;;;;5008998;28;20042;-40
2022/03/18 08:39:10;;;;;;;27.63;15.15;;;8.50;99.90;;;;;;5013834;28;20077;-40
2022/03/18 08:41:36;;;;;;;29.75;15.75;;;8.70;99.90;;;;;;5012746;28;20041;-40
2022/03/18 08:44:04;;;;;;;28.42;14.68;;;8.80;99.90;;;;;;5013381;28;20052;-40
2022/03/18 08:46:33;;;;;;;28.20;14.50;;;8.90;99.90;;;;;;5023587;28;20049;-40
2022/03/18 08:49:00;;;;;;;27.80;14.65;;;9.00;99.90;;;;;;5013091;28;20054;-40
2022/03/18 08:51:28;;;;;;;28.10;15.27;;;9.10;99.90;;;;;;5011463;28;20037;-40
2022/03/18 08:53:55;;;;;;;30.52;15.18;;;9.30;99.90;;;;;;5010931;28;20050;-40
2022/03/18 08:56:21;;;;;;;26.77;14.18;;;9.40;99.90;;;;;;5012767;28;20074;-40
2022/03/18 08:58:49;;;;;;;32.88;15.25;;;9.60;99.90;;;;;;5012723;28;20073;-40
2022/03/18 09:01:16;;;;;;;24.98;14.52;;;9.70;99.90;;;;;;5010502;28;20037;-40
2022/03/18 09:03:42;;;;;;;30.55;14.98;;;9.90;99.90;;;;;;5013192;28;20056;-40
2022/03/18 09:06:09;;;;;;;25.25;14.68;;;10.00;99.90;;;;;;5012764;28;20541;-40
2022/03/18 09:08:38;;;;;;;32.17;14.27;;;10.20;99.90;;;;;;5013235;28;20046;-40
2022/03/18 09:11:04;;;;;;;32.92;14.50;;;10.30;99.90;;;;;;5013346;28;20042;-40
2022/03/18 09:13:33;;;;;;;29.08;14.45;;;10.40;99.90;;;;;;5010310;28;20037;-40
2022/03/18 09:15:59;;;;;;;22.42;12.68;;;10.60;99.90;;;;;;5004299;28;20046;-40
2022/03/18 09:18:26;;;;;;;32.40;14.68;;;10.70;99.90;;;;;;5013418;28;20066;-40
2022/03/18 09:20:53;;;;;;;28.70;12.95;;;10.90;99.90;;;;;;5009349;28;20125;-40
2022/03/18 09:23:20;;;;;;;29.90;13.38;;;11.20;99.90;;;;;;5012253;28;20443;-41
2022/03/18 09:25:48;;;;;;;29.67;13.18;;;11.30;99.90;;;;;;5012674;28;20100;-40
2022/03/18 09:28:14;;;;;;;28.98;13.32;;;11.40;99.90;;;;;;5012827;28;20050;-41
2022/03/18 09:30:41;;;;;;;26.02;13.32;;;11.50;99.90;;;;;;5012999;28;20052;-42
2022/03/18 09:33:08;;;;;;;28.23;12.60;;;11.60;99.90;;;;;;5012338;28;20486;-40
2022/03/18 09:35:35;;;;;;;25.63;13.40;;;11.70;99.90;;;;;;5012802;28;20046;-40
2022/03/18 09:38:02;;;;;;;26.00;12.50;;;11.80;99.90;;;;;;5011378;28;20144;-41
2022/03/18 09:40:28;;;;;;;27.00;12.88;;;11.90;99.90;;;;;;5012840;28;20073;-40
2022/03/18 09:43:00;;;;;;;31.25;13.18;;;12.10;99.90;;;;;;5011924;28;20381;-41
2022/03/18 09:45:30;;;;;;;32.95;11.73;;;12.20;99.90;;;;;;5009562;28;20397;-40
2022/03/18 09:47:58;;;;;;;25.17;10.55;;;12.40;99.90;;;;;;5010510;28;20045;-40
2022/03/18 09:50:24;;;;;;;29.25;10.73;;;12.40;99.90;;;;;;5012902;28;20045;-41
2022/03/18 09:52:51;;;;;;;20.42;10.02;;;12.60;99.90;;;;;;5004767;28;20124;-41
2022/03/18 09:55:18;;;;;;;24.95;11.30;;;12.60;99.90;;;;;;5011763;28;20050;-40
2022/03/18 09:57:45;;;;;;;27.20;11.45;;;12.70;99.90;;;;;;5005650;28;20045;-40
2022/03/18 10:00:14;;;;;;;27.60;11.45;;;12.90;99.90;;;;;;5012822;28;20125;-41
2022/03/18 10:02:41;;;;;;;28.95;10.90;;;12.90;99.90;;;;;;5008640;28;20132;-41
2022/03/18 10:05:10;;;;;;;27.55;11.55;;;13.00;99.90;;;;;;5012298;28;20053;-41
2022/03/18 10:07:37;;;;;;;27.42;10.82;;;13.10;99.90;;;;;;5011893;28;20045;-41
2022/03/18 10:10:14;;;;;;;22.10;10.60;;;13.20;99.90;;;;;;5011817;28;20044;-41
2022/03/18 10:12:41;;;;;;;23.25;11.23;;;13.40;99.80;;;;;;5010773;28;20398;-41
2022/03/18 10:15:10;;;;;;;28.08;11.13;;;13.50;99.90;;;;;;5027662;28;20049;-41
2022/03/18 10:17:46;;;;;;;24.17;10.20;;;13.60;99.50;;;;;;5010612;28;20073;-41
2022/03/18 10:20:33;;;;;;;20.40;9.73;;;13.70;98.90;;;;;;5011792;28;20046;-41
2022/03/18 10:23:03;;;;;;;23.27;9.70;;;13.80;98.70;;;;;;5011691;28;20054;-41
2022/03/18 10:25:34;;;;;;;22.10;9.63;;;13.90;98.00;;;;;;5010964;28;20129;-41
2022/03/18 10:28:01;;;;;;;21.88;9.35;;;13.90;97.70;;;;;;5012429;28;20287;-41
2022/03/18 10:30:27;;;;;;;22.45;8.52;;;13.90;97.90;;;;;;5010685;28;20045;-41
2022/03/18 10:32:55;;;;;;;25.38;9.52;;;14.00;97.40;;;;;;5007351;28;20129;-42
2022/03/18 10:38:14;;;;;;;25.13;9.60;;;14.10;96.20;;;;;;5010065;28;20057;-41
2022/03/18 10:40:41;;;;;;;21.75;9.13;;;14.20;96.90;;;;;;5010718;28;20136;-41
2022/03/18 10:43:08;;;;;;;18.65;9.07;;;14.40;97.00;;;;;;5011088;28;20490;-42
2022/03/18 10:45:34;;;;;;;19.73;9.00;;;14.50;97.10;;;;;;5011133;28;20052;-41
2022/03/18 10:48:12;;;;;;;19.95;8.77;;;14.60;96.80;;;;;;5010911;28;20116;-39
2022/03/18 10:50:40;;;;;;;19.50;8.50;;;14.80;96.70;;;;;;5011761;28;20113;-40
2022/03/18 10:53:09;;;;;;;24.75;9.23;;;15.00;96.00;;;;;;5011009;28;20042;-39
2022/03/18 10:55:36;;;;;;;14.98;8.25;;;15.10;95.40;;;;;;5004312;28;20081;-41
2022/03/18 10:58:05;;;;;;;19.10;8.30;;;15.20;94.90;;;;;;5012148;28;20046;-39
2022/03/18 11:00:33;;;;;;;18.10;7.75;;;15.30;94.40;;;;;;5012265;28;20045;-40
2022/03/18 11:03:01;;;;;;;16.33;7.90;;;15.30;94.60;;;;;;5011748;28;20073;-40
2022/03/18 11:05:31;;;;;;;15.88;7.15;;;15.40;94.40;;;;;;5006159;28;20038;-40
2022/03/18 11:07:58;;;;;;;20.80;7.45;;;15.40;93.60;;;;;;5011934;28;20129;-40
2022/03/18 11:13:09;;;;;;;22.55;8.70;;;15.50;93.20;;;;;;5011977;28;20045;-40
2022/03/18 11:15:39;;;;;;;15.68;7.93;;;15.60;92.80;;;;;;5010841;28;20054;-40
2022/03/18 11:18:06;;;;;;;16.10;7.00;;;15.70;92.60;;;;;;5011447;28;20060;-41
2022/03/18 11:20:42;;;;;;;14.32;6.85;;;15.90;91.90;;;;;;5012925;28;20269;-43
2022/03/18 11:23:12;;;;;;;17.85;6.65;;;15.90;91.40;;;;;;5008124;28;20430;-41
2022/03/18 11:25:39;;;;;;;14.90;7.07;;;16.00;90.90;;;;;;5015044;28;20474;-43
2022/03/18 11:28:06;;;;;;;21.20;6.80;;;16.00;90.90;;;;;;5013647;28;20547;-41
2022/03/18 11:30:34;;;;;;;18.73;7.50;;;16.20;90.30;;;;;;5013616;28;20072;-41
2022/03/18 11:33:23;;;;;;;16.60;6.95;;;16.30;89.80;;;;;;5013016;28;20050;-41
2022/03/18 11:36:24;;;;;;;21.38;7.47;;;16.30;89.40;;;;;;5012500;28;20081;-43
2022/03/18 11:38:59;;;;;;;15.80;6.77;;;16.50;89.40;;;;;;5011442;28;20069;-41
2022/03/18 11:41:27;;;;;;;18.70;7.13;;;16.50;89.40;;;;;;5014855;28;20288;-41
2022/03/18 11:43:54;;;;;;;16.52;6.47;;;16.70;87.50;;;;;;5014123;28;20354;-42
2022/03/18 11:46:27;;;;;;;19.80;7.40;;;16.70;86.50;;;;;;5013648;28;20061;-41
2022/03/18 11:48:55;;;;;;;13.18;6.13;;;16.80;86.20;;;;;;5014294;28;20045;-43
2022/03/18 11:51:31;;;;;;;18.23;7.13;;;17.00;86.50;;;;;;5014348;28;20485;-42
2022/03/18 11:53:59;;;;;;;18.00;7.20;;;17.00;82.60;;;;;;5008884;28;20049;-41
2022/03/18 11:56:42;;;;;;;16.95;8.13;;;16.70;83.60;;;;;;5013169;28;20077;-42
2022/03/18 11:59:38;;;;;;;20.73;7.47;;;16.40;85.70;;;;;;5014172;28;20120;-42
2022/03/18 12:02:05;;;;;;;17.98;7.25;;;16.30;85.30;;;;;;5013834;28;20042;-41
2022/03/18 12:04:39;;;;;;;15.13;6.93;;;16.20;87.20;;;;;;5014151;28;20050;-41
2022/03/18 12:07:11;;;;;;;15.05;6.13;;;16.10;86.50;;;;;;5013515;28;20049;-42
2022/03/18 12:09:55;;;;;;;23.70;6.90;;;16.00;84.20;;;;;;5013658;28;20559;-41
2022/03/18 12:12:22;;;;;;;14.20;5.75;;;16.00;86.20;;;;;;5014132;28;20456;-44
2022/03/18 12:14:49;;;;;;;14.98;5.72;;;16.20;85.50;;;;;;5012973;28;20452;-41
2022/03/18 12:17:16;;;;;;;15.13;5.13;;;16.50;85.70;;;;;;5013902;28;20409;-41
2022/03/18 12:19:49;;;;;;;16.42;4.78;;;16.70;85.20;;;;;;5014189;28;20049;-41
2022/03/18 12:22:17;;;;;;;17.55;4.90;;;16.70;82.70;;;;;;5005895;28;20088;-42
2022/03/18 12:24:44;;;;;;;11.07;4.20;;;16.60;80.60;;;;;;5011472;28;20133;-42
2022/03/18 12:27:10;;;;;;;14.90;3.95;;;16.40;79.20;;;;;;5012071;28;20705;-41
2022/03/18 12:29:37;;;;;;;17.60;4.15;;;16.30;78.60;;;;;;5011046;28;20474;-42
2022/03/18 12:32:05;;;;;;;9.95;3.80;;;16.20;78.40;;;;;;5012735;28;20052;-41
2022/03/18 12:34:32;;;;;;;12.13;3.35;;;16.30;77.40;;;;;;5011093;28;20052;-42
2022/03/18 12:36:58;;;;;;;14.13;2.50;;;16.40;76.70;;;;;;5005108;28;20128;-42
2022/03/18 12:39:28;;;;;;;13.40;3.10;;;16.60;73.20;;;;;;5012227;28;20478;-42
2022/03/18 12:42:07;;;;;;;14.80;3.55;;;16.70;71.50;;;;;;5013444;28;20100;-41
2022/03/18 12:44:34;;;;;;;14.02;3.85;;;16.60;71.90;;;;;;5013417;28;20069;-43
2022/03/18 12:47:01;;;;;;;11.48;4.03;;;16.50;72.40;;;;;;5012004;28;20058;-41
2022/03/18 12:49:32;;;;;;;12.45;4.18;;;16.30;73.40;;;;;;5010093;28;20050;-42
2022/03/18 12:51:59;;;;;;;17.03;4.10;;;16.40;74.40;;;;;;5011107;28;20125;-42
2022/03/18 12:54:27;;;;;;;13.32;3.70;;;16.60;73.50;;;;;;5007883;28;20296;-42
2022/03/18 12:56:53;;;;;;;16.35;4.32;;;16.60;71.20;;;;;;5008331;28;20060;-43
2022/03/18 12:59:20;;;;;;;12.55;4.20;;;16.40;71.30;;;;;;5013789;28;20133;-41
2022/03/18 13:01:54;;;;;;;14.07;4.22;;;16.30;71.00;;;;;;5012979;28;20088;-41
2022/03/18 13:04:21;;;;;;;13.60;4.15;;;16.30;72.20;;;;;;5006980;28;20041;-42